Time;durP1;ratioP1;P1;durP2;ratioP2;P2;SDS_P1;SDS_P2;PMS_P1;PMS_P2;Temp;Humidity;BMP_temperature;BMP_pressure;BME280_temperature;BME280_humidity;BME280_pressure;Samples;Min_cycle;Max_cycle;Signal;HPM_P1;HPM_P2
2021/07/04 00:02:54;;;;;;;15.08;10.32;;;;;;;14.04;73.87;98571.17;2258161;78;20972;-80
2021/07/04 00:05:55;;;;;;;12.10;10.23;;;;;;;14.07;73.67;98574.21;2249740;79;20976;-81
2021/07/04 00:08:56;;;;;;;15.55;11.50;;;;;;;14.08;73.60;98568.08;2249847;79;20953;-81
2021/07/04 00:11:57;;;;;;;15.83;11.25;;;;;;;14.12;74.02;98573.30;2249708;79;20931;-80
2021/07/04 00:14:58;;;;;;;16.10;11.70;;;;;;;14.18;73.83;98575.02;2249623;79;20900;-80
2021/07/04 00:17:59;;;;;;;15.15;12.00;;;;;;;14.21;73.73;98572.37;2249645;79;20928;-80
2021/07/04 00:21:02;;;;;;;13.03;11.63;;;;;;;14.19;73.41;98568.88;2249535;79;20889;-79
2021/07/04 00:24:03;;;;;;;16.50;11.85;;;;;;;14.10;73.41;98566.31;2249303;79;21023;-79
2021/07/04 00:27:04;;;;;;;13.80;11.48;;;;;;;13.91;73.70;98558.56;2249537;79;20984;-79
2021/07/04 00:30:05;;;;;;;16.15;10.70;;;;;;;13.79;74.08;98555.98;2249132;79;20929;-79
2021/07/04 00:33:06;;;;;;;12.00;10.72;;;;;;;13.77;74.30;98553.80;2249568;79;20964;-79
2021/07/04 00:36:06;;;;;;;12.95;10.48;;;;;;;13.78;74.39;98551.61;2249475;79;20908;-79
2021/07/04 00:39:07;;;;;;;14.80;10.75;;;;;;;13.77;74.42;98553.80;2249512;79;20965;-79
2021/07/04 00:42:08;;;;;;;11.75;10.55;;;;;;;13.81;74.60;98554.66;2249565;79;20880;-80
2021/07/04 00:45:09;;;;;;;15.30;10.80;;;;;;;13.78;74.52;98547.67;2249369;79;20960;-80
2021/07/04 00:48:11;;;;;;;13.62;11.05;;;;;;;13.71;74.57;98553.40;2249423;79;20951;-79
2021/07/04 00:51:12;;;;;;;11.93;10.68;;;;;;;13.65;74.70;98551.25;2249421;79;20908;-79
2021/07/04 00:54:13;;;;;;;13.95;10.68;;;;;;;13.61;74.97;98549.08;2252088;79;21339;-79
2021/07/04 00:57:14;;;;;;;14.50;10.65;;;;;;;13.60;74.97;98554.33;2260286;79;20908;-79
2021/07/04 01:00:15;;;;;;;13.55;10.38;;;;;;;13.56;75.12;98552.16;2249542;79;21301;-80
2021/07/04 01:03:16;;;;;;;13.50;11.22;;;;;;;13.60;75.33;98554.33;2274133;77;21338;-80
2021/07/04 01:06:17;;;;;;;16.17;13.18;;;;;;;13.65;75.50;98552.56;2281698;78;20933;-79
2021/07/04 01:09:18;;;;;;;13.93;12.43;;;;;;;13.70;75.75;98559.52;2281891;78;20914;-80
2021/07/04 01:12:19;;;;;;;18.77;13.90;;;;;;;13.75;75.83;98548.14;2281942;78;20938;-79
2021/07/04 01:15:20;;;;;;;15.55;12.43;;;;;;;13.80;75.89;98553.79;2281730;78;20904;-80
2021/07/04 01:18:21;;;;;;;12.40;11.20;;;;;;;13.81;75.78;98554.22;2281817;78;20910;-79
2021/07/04 01:21:22;;;;;;;15.08;12.13;;;;;;;13.80;75.38;98552.92;2281744;78;20962;-79
2021/07/04 01:24:23;;;;;;;16.55;13.55;;;;;;;13.74;75.36;98538.52;2275914;78;20974;-80
2021/07/04 01:27:24;;;;;;;21.00;13.40;;;;;;;13.65;75.51;98538.13;2249954;79;20907;-80
2021/07/04 01:30:25;;;;;;;15.08;11.78;;;;;;;13.58;75.62;98539.05;2249006;79;21248;-80
2021/07/04 01:33:26;;;;;;;16.82;13.28;;;;;;;13.62;75.67;98532.91;2249154;79;21256;-79
2021/07/04 01:36:27;;;;;;;14.38;12.58;;;;;;;13.68;75.77;98538.12;2249029;79;21323;-80
2021/07/04 01:39:28;;;;;;;15.63;12.15;;;;;;;13.71;75.70;98527.17;2256360;78;20926;-80
2021/07/04 01:42:29;;;;;;;12.18;10.35;;;;;;;13.75;75.63;98533.27;2281615;78;20974;-79
2021/07/04 01:45:30;;;;;;;14.68;10.75;;;;;;;13.81;75.75;98531.05;2281615;78;20966;-79
2021/07/04 01:48:30;;;;;;;11.65;10.45;;;;;;;13.84;75.58;98525.34;2281589;78;21282;-79
2021/07/04 01:51:32;;;;;;;14.30;10.50;;;;;;;13.84;75.42;98534.97;2281449;78;20909;-80
2021/07/04 01:54:32;;;;;;;12.73;11.40;;;;;;;13.83;75.36;98531.47;2275548;78;21350;-79
2021/07/04 01:57:33;;;;;;;12.50;10.08;;;;;;;13.83;75.36;98520.98;2279532;78;20942;-79
2021/07/04 02:00:34;;;;;;;14.65;9.33;;;;;;;13.84;75.45;98521.84;2281709;78;21320;-79
2021/07/04 02:03:35;;;;;;;12.05;8.88;;;;;;;13.88;75.59;98519.67;2255521;77;20948;-79
2021/07/04 02:06:37;;;;;;;14.65;9.73;;;;;;;13.87;75.64;98521.42;2249311;79;20937;-79
2021/07/04 02:09:37;;;;;;;10.43;9.33;;;;;;;13.89;75.64;98527.53;2249650;79;20928;-79
2021/07/04 02:12:38;;;;;;;12.40;10.28;;;;;;;13.90;75.83;98533.64;2249649;79;21260;-79
2021/07/04 02:15:40;;;;;;;12.80;9.78;;;;;;;13.96;76.09;98535.80;2249616;79;21147;-79
2021/07/04 02:18:41;;;;;;;15.00;11.33;;;;;;;14.01;76.26;98530.07;2249660;79;20971;-79
2021/07/04 02:21:42;;;;;;;14.05;11.30;;;;;;;14.06;76.24;98536.59;2249720;79;20912;-80
2021/07/04 02:24:43;;;;;;;15.03;10.88;;;;;;;14.10;76.30;98535.70;2253141;79;21390;-79
2021/07/04 02:27:44;;;;;;;14.03;10.58;;;;;;;14.13;76.31;98545.30;2250518;79;20881;-80
2021/07/04 02:30:45;;;;;;;14.68;11.38;;;;;;;14.17;76.09;98539.14;2249626;79;20984;-80
2021/07/04 02:33:46;;;;;;;13.53;10.95;;;;;;;14.20;75.97;98536.50;2249547;79;20933;-80
2021/07/04 02:36:47;;;;;;;13.55;11.28;;;;;;;14.22;75.94;98536.91;2249654;79;21312;-80
2021/07/04 02:39:48;;;;;;;16.40;10.88;;;;;;;14.22;75.98;98540.86;2249798;79;20967;-80
2021/07/04 02:42:48;;;;;;;13.72;10.90;;;;;;;14.22;76.12;98538.67;2249873;79;21299;-79
2021/07/04 02:45:49;;;;;;;13.30;11.20;;;;;;;14.22;76.21;98547.42;2249662;79;20976;-80
2021/07/04 02:48:50;;;;;;;13.38;10.88;;;;;;;14.25;76.27;98554.40;2249840;79;21284;-80
2021/07/04 02:51:51;;;;;;;17.98;10.35;;;;;;;14.29;76.27;98552.18;2249640;79;20972;-79
2021/07/04 02:54:52;;;;;;;13.50;9.75;;;;;;;14.30;76.10;98553.48;2253015;79;21402;-81
2021/07/04 02:57:53;;;;;;;13.30;10.05;;;;;;;14.35;76.22;98554.75;2250559;79;21280;-80
2021/07/04 03:00:54;;;;;;;11.70;9.40;;;;;;;14.39;76.10;98566.11;2249817;79;20909;-79
2021/07/04 03:03:55;;;;;;;12.00;9.38;;;;;;;14.46;76.03;98562.58;2276225;77;20954;-79
2021/07/04 03:06:57;;;;;;;12.63;9.18;;;;;;;14.52;75.92;98564.72;2281946;78;20907;-79
2021/07/04 03:09:58;;;;;;;12.75;9.88;;;;;;;14.61;75.83;98567.27;2281806;77;20919;-79
2021/07/04 03:12:59;;;;;;;14.25;10.58;;;;;;;14.64;75.81;98565.05;2281627;78;20887;-79
2021/07/04 03:16:00;;;;;;;12.20;10.90;;;;;;;14.70;75.81;98566.31;2281604;78;20910;-80
2021/07/04 03:19:01;;;;;;;11.70;9.33;;;;;;;14.77;75.70;98574.59;2281706;78;20910;-80
2021/07/04 03:22:02;;;;;;;15.10;8.68;;;;;;;14.85;75.53;98583.28;2281868;78;20902;-78
2021/07/04 03:25:03;;;;;;;16.45;8.45;;;;;;;14.92;75.24;98582.33;2274760;78;21073;-80
2021/07/04 03:28:05;;;;;;;10.90;7.87;;;;;;;14.96;75.08;98580.10;2269856;78;20972;-80
2021/07/04 03:31:05;;;;;;;14.93;8.48;;;;;;;14.99;74.99;98584.45;2281982;78;21282;-79
2021/07/04 03:34:06;;;;;;;16.57;9.40;;;;;;;15.04;74.80;98592.30;2281814;77;21318;-80
2021/07/04 03:37:07;;;;;;;10.10;8.43;;;;;;;15.08;74.70;98589.63;2282349;78;21286;-80
2021/07/04 03:40:08;;;;;;;11.75;8.38;;;;;;;15.08;74.69;98590.06;2281630;77;21302;-80
2021/07/04 03:43:09;;;;;;;12.53;9.35;;;;;;;15.05;74.58;98596.23;2282103;77;20922;-80
2021/07/04 03:46:10;;;;;;;14.40;8.90;;;;;;;15.03;74.67;98598.44;2282201;77;21085;-79
2021/07/04 03:49:11;;;;;;;13.32;9.00;;;;;;;14.97;74.72;98595.43;2282016;78;20907;-79
2021/07/04 03:52:12;;;;;;;15.35;9.30;;;;;;;14.97;74.72;98595.43;2282161;78;21263;-80
2021/07/04 03:55:14;;;;;;;11.93;8.03;;;;;;;15.00;74.91;98603.28;2274172;78;20954;-80
2021/07/04 03:58:15;;;;;;;11.75;8.23;;;;;;;15.03;74.91;98606.33;2270398;78;20997;-80
2021/07/04 04:01:19;;;;;;;9.90;8.85;;;;;;;15.07;75.00;98606.72;2281772;78;20875;-80
2021/07/04 04:04:21;;;;;;;12.93;9.05;;;;;;;15.13;74.92;98610.16;2253164;77;20995;-80
2021/07/04 04:07:22;;;;;;;12.55;10.63;;;;;;;15.17;74.74;98605.74;2249846;79;20963;-79
2021/07/04 04:10:23;;;;;;;13.75;11.80;;;;;;;15.22;74.55;98604.81;2249742;79;21289;-80
2021/07/04 04:13:24;;;;;;;20.17;12.20;;;;;;;15.26;74.61;98608.27;2249665;79;21289;-79
2021/07/04 04:16:25;;;;;;;18.15;12.93;;;;;;;15.26;74.61;98608.27;2249393;79;20996;-80
2021/07/04 04:19:26;;;;;;;18.15;13.98;;;;;;;15.30;74.44;98605.59;2249676;79;21424;-80
2021/07/04 04:22:27;;;;;;;22.65;14.28;;;;;;;15.37;74.18;98610.34;2249583;79;20916;-83
2021/07/04 04:25:28;;;;;;;126.02;21.75;;;;;;;15.46;74.22;98593.59;2249581;79;20984;-84
2021/07/04 04:28:28;;;;;;;33.13;16.97;;;;;;;15.53;75.32;98596.57;2249609;79;20912;-79
2021/07/04 04:31:29;;;;;;;38.20;16.12;;;;;;;15.90;74.10;98601.86;2249546;79;20936;-80
2021/07/04 04:34:30;;;;;;;18.62;13.85;;;;;;;16.09;73.90;98589.77;2249617;79;20996;-79
2021/07/04 04:37:31;;;;;;;39.42;14.63;;;;;;;16.44;74.22;98588.78;2249484;79;20976;-79
2021/07/04 04:40:32;;;;;;;18.00;11.00;;;;;;;16.94;72.94;98580.55;2249559;79;20900;-79
2021/07/04 04:43:33;;;;;;;15.45;11.33;;;;;;;17.41;72.89;98579.68;2249671;79;20935;-80
2021/07/04 04:46:35;;;;;;;23.55;10.50;;;;;;;17.72;70.89;98584.36;2249545;79;21137;-79
2021/07/04 04:49:36;;;;;;;23.85;9.73;;;;;;;17.96;70.71;98580.33;2249545;79;20880;-79
2021/07/04 04:52:37;;;;;;;18.87;9.03;;;;;;;18.20;69.87;98586.38;2249651;79;20900;-81
2021/07/04 04:55:38;;;;;;;55.05;12.80;;;;;;;18.46;69.09;98591.09;2249433;79;20987;-80
2021/07/04 04:58:39;;;;;;;13.83;9.60;;;;;;;18.69;68.81;98583.50;2249849;79;21028;-79
2021/07/04 05:01:40;;;;;;;14.45;9.83;;;;;;;18.73;67.30;98583.84;2249778;79;20943;-79
2021/07/04 05:04:41;;;;;;;11.20;8.40;;;;;;;18.56;66.67;98582.48;2279215;77;21017;-78
2021/07/04 05:07:42;;;;;;;10.48;8.55;;;;;;;18.45;66.85;98590.22;2281973;78;21147;-81
2021/07/04 05:10:43;;;;;;;9.85;8.18;;;;;;;18.49;67.17;98587.50;2281772;78;20950;-79
2021/07/04 05:13:44;;;;;;;10.10;7.67;;;;;;;18.74;66.88;98582.94;2281876;78;20910;-79
2021/07/04 05:16:45;;;;;;;13.30;8.35;;;;;;;19.12;67.06;98585.52;2281804;77;21005;-78
2021/07/04 05:19:46;;;;;;;12.03;9.35;;;;;;;19.48;65.89;98580.55;2282030;77;20937;-81
2021/07/04 05:22:47;;;;;;;9.98;7.80;;;;;;;19.64;64.99;98577.05;2281757;77;20929;-80
2021/07/04 05:25:49;;;;;;;11.08;8.00;;;;;;;19.69;65.04;98576.00;2281745;77;20969;-79
2021/07/04 05:28:50;;;;;;;12.78;8.20;;;;;;;19.86;64.44;98573.31;2281954;77;20959;-80
2021/07/04 05:31:51;;;;;;;10.60;7.87;;;;;;;19.90;63.95;98576.28;2281629;78;21103;-79
2021/07/04 05:34:52;;;;;;;9.30;7.75;;;;;;;19.93;63.83;98577.51;2281992;77;20946;-79
2021/07/04 05:37:53;;;;;;;9.05;8.15;;;;;;;20.02;63.45;98583.43;2281995;78;20907;-79
2021/07/04 05:40:53;;;;;;;9.15;8.05;;;;;;;19.97;63.02;98576.08;2282116;77;20903;-79
2021/07/04 05:43:54;;;;;;;12.50;9.45;;;;;;;19.84;62.70;98576.45;2281948;78;20942;-79
2021/07/04 05:46:55;;;;;;;10.85;7.65;;;;;;;19.71;62.88;98572.84;2282009;78;20883;-79
2021/07/04 05:49:56;;;;;;;9.55;7.28;;;;;;;19.68;62.63;98572.94;2281948;78;20907;-79
2021/07/04 05:52:57;;;;;;;11.03;7.28;;;;;;;19.58;63.40;98573.25;2281691;78;20906;-79
2021/07/04 05:55:58;;;;;;;9.63;8.00;;;;;;;19.46;63.16;98575.75;2281999;77;20989;-78
2021/07/04 05:58:59;;;;;;;15.95;8.65;;;;;;;19.44;63.67;98578.03;2281969;77;20907;-79
2021/07/04 06:02:00;;;;;;;9.78;8.18;;;;;;;19.60;63.36;98579.36;2281921;77;20911;-79
2021/07/04 06:05:01;;;;;;;10.80;9.25;;;;;;;19.59;63.50;98581.60;2290252;78;21027;-79
2021/07/04 06:08:02;;;;;;;14.47;9.50;;;;;;;19.65;63.44;98580.97;2292130;78;20900;-79
2021/07/04 06:11:03;;;;;;;9.88;8.98;;;;;;;19.58;63.38;98587.81;2291240;78;20908;-80
2021/07/04 06:14:04;;;;;;;10.78;9.58;;;;;;;19.37;63.08;98586.59;2291158;78;20968;-81
2021/07/04 06:17:05;;;;;;;10.23;8.40;;;;;;;18.87;64.01;98587.45;2291546;78;21166;-80
2021/07/04 06:20:06;;;;;;;10.03;8.95;;;;;;;18.55;65.01;98580.75;2291650;78;20955;-79
2021/07/04 06:23:07;;;;;;;13.20;8.73;;;;;;;18.40;65.38;98584.17;2291563;78;20984;-79
2021/07/04 06:26:07;;;;;;;10.05;8.68;;;;;;;18.34;66.10;98583.45;2291603;78;20940;-79
2021/07/04 06:29:09;;;;;;;10.55;8.48;;;;;;;18.49;66.20;98579.58;2291795;78;20960;-78
2021/07/04 06:32:10;;;;;;;11.08;8.45;;;;;;;18.42;65.89;98574.89;2291455;78;20944;-79
2021/07/04 06:35:11;;;;;;;10.32;8.83;;;;;;;18.53;66.14;98577.27;2291875;78;20912;-79
2021/07/04 06:38:12;;;;;;;12.18;9.18;;;;;;;18.64;66.12;98572.62;2291716;78;21387;-79
2021/07/04 06:41:13;;;;;;;12.73;10.08;;;;;;;18.64;65.66;98571.30;2291709;78;21004;-79
2021/07/04 06:44:14;;;;;;;11.78;9.90;;;;;;;18.65;66.06;98573.04;2292003;78;20915;-79
2021/07/04 06:47:15;;;;;;;10.50;9.13;;;;;;;18.64;66.24;98569.98;2291923;78;20961;-80
2021/07/04 06:50:16;;;;;;;15.53;10.48;;;;;;;18.77;65.87;98570.95;2291373;78;20920;-80
2021/07/04 06:53:17;;;;;;;9.50;8.63;;;;;;;19.25;65.27;98569.73;2291608;78;20943;-79
2021/07/04 06:56:18;;;;;;;10.53;9.48;;;;;;;19.56;63.88;98569.32;2291603;78;20975;-80
2021/07/04 06:59:19;;;;;;;8.75;7.90;;;;;;;19.56;63.70;98568.45;2291721;78;20969;-81
2021/07/04 07:02:20;;;;;;;8.78;7.90;;;;;;;19.56;63.80;98568.00;2291497;78;20983;-79
2021/07/04 07:05:21;;;;;;;11.15;8.58;;;;;;;19.49;63.33;98576.13;2281749;78;20981;-80
2021/07/04 07:08:22;;;;;;;9.90;8.23;;;;;;;19.46;64.00;98573.56;2281633;77;20922;-80
2021/07/04 07:11:23;;;;;;;8.98;7.70;;;;;;;19.67;62.46;98584.89;2281745;77;20938;-80
2021/07/04 07:14:24;;;;;;;8.45;7.25;;;;;;;20.03;61.71;98580.33;2281710;78;20938;-80
2021/07/04 07:17:25;;;;;;;10.05;9.05;;;;;;;20.39;61.51;98590.27;2281814;78;20938;-80
2021/07/04 07:20:26;;;;;;;9.93;8.70;;;;;;;20.74;60.73;98583.83;2281527;77;20946;-80
2021/07/04 07:23:27;;;;;;;9.95;9.05;;;;;;;20.61;60.30;98588.66;2281769;77;21001;-81
2021/07/04 07:26:28;;;;;;;9.88;8.98;;;;;;;20.87;60.37;98584.31;2281623;78;20965;-80
2021/07/04 07:29:29;;;;;;;11.65;10.55;;;;;;;21.04;59.11;98594.35;2281869;77;20970;-80
2021/07/04 07:32:30;;;;;;;11.00;9.90;;;;;;;21.01;59.34;98587.83;2281967;78;20887;-80
2021/07/04 07:35:32;;;;;;;11.65;10.23;;;;;;;21.33;59.46;98584.95;2281872;77;20950;-80
2021/07/04 07:38:33;;;;;;;14.83;10.03;;;;;;;21.54;58.88;98581.98;2282036;78;20978;-80
2021/07/04 07:41:34;;;;;;;10.30;9.25;;;;;;;21.60;58.34;98581.29;2281863;78;20958;-80
2021/07/04 07:44:35;;;;;;;12.43;10.32;;;;;;;21.85;58.33;98581.73;2281757;78;20906;-80
2021/07/04 07:47:36;;;;;;;15.38;10.90;;;;;;;22.27;57.44;98585.02;2281946;78;20914;-82
2021/07/04 07:50:37;;;;;;;10.53;9.38;;;;;;;22.71;56.27;98586.78;2281795;78;20937;-79
2021/07/04 07:53:38;;;;;;;8.93;7.85;;;;;;;22.85;56.54;98586.25;2281963;77;20894;-80
2021/07/04 07:56:39;;;;;;;10.03;9.03;;;;;;;23.20;54.99;98587.41;2281465;77;20953;-79
2021/07/04 07:59:40;;;;;;;9.28;8.28;;;;;;;23.64;54.64;98584.64;2281665;78;20891;-80
2021/07/04 08:02:41;;;;;;;9.85;8.78;;;;;;;23.64;53.98;98589.97;2281668;77;20899;-79
2021/07/04 08:05:42;;;;;;;9.93;8.98;;;;;;;23.72;54.20;98582.50;2291170;77;20917;-80
2021/07/04 08:08:43;;;;;;;9.08;8.15;;;;;;;23.71;53.76;98589.63;2291264;78;20918;-80
2021/07/04 08:11:44;;;;;;;9.23;8.20;;;;;;;23.67;54.12;98578.71;2291523;78;20940;-80
2021/07/04 08:14:45;;;;;;;10.58;8.85;;;;;;;23.61;53.37;98582.12;2291509;78;20971;-80
2021/07/04 08:17:46;;;;;;;9.03;8.13;;;;;;;23.28;53.54;98573.30;2291524;78;20976;-80
2021/07/04 08:20:47;;;;;;;13.45;9.23;;;;;;;23.20;54.61;98572.30;2291433;78;20935;-80
2021/07/04 08:23:48;;;;;;;11.05;9.55;;;;;;;23.15;54.30;98578.75;2291576;78;20941;-80
2021/07/04 08:26:49;;;;;;;8.78;7.92;;;;;;;22.83;54.79;98574.34;2291353;78;21042;-79
2021/07/04 08:29:50;;;;;;;10.75;8.85;;;;;;;22.67;55.75;98572.34;2291574;78;20905;-78
2021/07/04 08:32:50;;;;;;;10.48;9.20;;;;;;;22.71;55.62;98580.59;2291569;78;20917;-80
2021/07/04 08:35:51;;;;;;;9.45;8.43;;;;;;;22.56;55.82;98576.77;2291452;78;20909;-79
2021/07/04 08:38:52;;;;;;;8.40;7.60;;;;;;;22.58;56.07;98575.38;2291506;78;21011;-80
2021/07/04 08:41:53;;;;;;;8.00;7.30;;;;;;;22.98;55.86;98570.63;2291490;78;20913;-79
2021/07/04 08:44:54;;;;;;;6.60;6.00;;;;;;;23.30;54.79;98578.55;2291841;78;20948;-80
2021/07/04 08:47:55;;;;;;;6.95;6.25;;;;;;;23.16;54.28;98573.83;2291525;78;21074;-80
2021/07/04 08:50:56;;;;;;;6.37;5.87;;;;;;;22.86;54.40;98571.55;2291625;78;20948;-80
2021/07/04 08:53:57;;;;;;;6.05;5.00;;;;;;;22.72;54.89;98569.89;2291357;78;21332;-80
2021/07/04 08:56:58;;;;;;;5.30;4.80;;;;;;;22.87;54.56;98565.76;2291313;78;20947;-79
2021/07/04 08:59:59;;;;;;;6.58;5.37;;;;;;;23.18;54.39;98558.66;2291687;78;20945;-79
2021/07/04 09:03:00;;;;;;;6.10;5.58;;;;;;;23.43;53.54;98568.66;2290990;78;20896;-80
2021/07/04 09:06:01;;;;;;;6.58;5.37;;;;;;;23.68;53.30;98558.26;2281733;78;20898;-80
2021/07/04 09:09:02;;;;;;;5.97;5.37;;;;;;;23.64;52.92;98565.99;2281817;78;20990;-80
2021/07/04 09:12:03;;;;;;;5.70;4.83;;;;;;;23.88;52.11;98570.20;2281500;78;20875;-80
2021/07/04 09:15:04;;;;;;;6.28;4.53;;;;;;;23.66;52.48;98560.13;2281702;78;20911;-81
2021/07/04 09:18:05;;;;;;;5.20;4.22;;;;;;;23.65;52.52;98565.06;2281988;78;20929;-80
2021/07/04 09:21:05;;;;;;;5.67;5.22;;;;;;;23.68;51.89;98551.59;2281461;78;20910;-80
2021/07/04 09:24:06;;;;;;;5.10;4.55;;;;;;;23.93;51.44;98552.66;2281839;78;20898;-80
2021/07/04 09:27:07;;;;;;;5.00;4.60;;;;;;;24.16;51.00;98551.10;2281884;78;20989;-81
2021/07/04 09:30:08;;;;;;;6.00;5.50;;;;;;;24.25;50.75;98536.46;2281710;77;20977;-80
2021/07/04 09:33:09;;;;;;;5.62;5.12;;;;;;;24.20;51.45;98541.16;2281856;78;21125;-80
2021/07/04 09:36:10;;;;;;;5.45;4.97;;;;;;;24.09;51.90;98541.20;2282377;77;21389;-81
2021/07/04 09:39:13;;;;;;;4.90;4.53;;;;;;;24.23;52.54;98532.53;2262373;78;20901;-82
2021/07/04 09:42:14;;;;;;;5.47;5.00;;;;;;;24.49;51.32;98532.66;2282611;77;20907;-82
2021/07/04 09:45:14;;;;;;;4.42;4.12;;;;;;;24.59;50.49;98532.59;2282738;78;20898;-81
2021/07/04 09:48:17;;;;;;;5.25;4.85;;;;;;;24.56;50.45;98529.22;2282984;78;20871;-81
2021/07/04 09:51:17;;;;;;;5.55;5.05;;;;;;;24.57;50.73;98521.61;2283232;77;21339;-82
2021/07/04 09:54:18;;;;;;;8.43;5.10;;;;;;;24.56;51.01;98528.75;2282767;77;20954;-81
2021/07/04 09:57:19;;;;;;;9.05;6.65;;;;;;;24.57;50.91;98521.61;2282596;78;20954;-82
2021/07/04 10:00:20;;;;;;;5.47;4.97;;;;;;;24.72;51.15;98519.03;2282707;78;20879;-82
2021/07/04 10:03:22;;;;;;;4.62;4.22;;;;;;;24.65;50.02;98524.76;2282242;77;20946;-81
2021/07/04 10:06:23;;;;;;;4.58;4.17;;;;;;;24.82;50.45;98523.44;2282713;77;20907;-81
2021/07/04 10:09:25;;;;;;;5.30;4.90;;;;;;;25.25;49.50;98515.46;2282723;78;20994;-81
2021/07/04 10:12:26;;;;;;;4.90;4.60;;;;;;;25.54;48.32;98505.88;2282395;78;20962;-81
2021/07/04 10:15:27;;;;;;;4.87;4.53;;;;;;;26.01;47.73;98506.00;2281880;78;20914;-79
2021/07/04 10:18:28;;;;;;;5.90;5.30;;;;;;;26.44;45.38;98504.92;2281704;77;20922;-80
2021/07/04 10:21:29;;;;;;;5.60;4.47;;;;;;;26.72;45.78;98508.67;2281436;78;20930;-81
2021/07/04 10:24:30;;;;;;;8.95;6.10;;;;;;;27.14;45.59;98502.14;2281624;77;20911;-80
2021/07/04 10:27:31;;;;;;;5.25;4.55;;;;;;;27.52;44.50;98498.91;2281626;77;21342;-81
2021/07/04 10:30:32;;;;;;;4.33;4.00;;;;;;;27.77;43.87;98491.11;2281838;77;20902;-81
2021/07/04 10:33:36;;;;;;;7.17;4.50;;;;;;;28.14;42.48;98484.23;2281632;77;20919;-80
2021/07/04 10:36:36;;;;;;;4.37;4.03;;;;;;;27.94;42.41;98475.28;2281513;78;20925;-80
2021/07/04 10:39:37;;;;;;;5.37;3.95;;;;;;;27.54;43.78;98467.52;2281571;78;20918;-81
2021/07/04 10:42:38;;;;;;;5.45;4.87;;;;;;;27.53;44.58;98461.29;2281746;77;20894;-80
2021/07/04 10:45:40;;;;;;;4.55;4.15;;;;;;;27.55;44.22;98458.52;2281651;78;20942;-80
2021/07/04 10:48:41;;;;;;;4.60;4.20;;;;;;;27.41;43.65;98457.18;2281949;78;20949;-81
2021/07/04 10:51:42;;;;;;;4.30;3.92;;;;;;;27.60;42.32;98458.63;2281759;78;21335;-80
2021/07/04 10:54:46;;;;;;;6.72;4.42;;;;;;;27.74;42.92;98454.21;2282054;77;21306;-82
2021/07/04 10:57:47;;;;;;;5.00;4.50;;;;;;;27.77;42.20;98451.37;2281960;77;20998;-81
2021/07/04 11:00:49;;;;;;;4.53;4.12;;;;;;;27.52;42.56;98454.20;2282327;78;20918;-81
2021/07/04 11:03:50;;;;;;;4.60;4.30;;;;;;;26.69;43.17;98452.15;2276993;77;21016;-80
2021/07/04 11:06:51;;;;;;;4.60;4.20;;;;;;;26.11;44.77;98449.31;2249803;79;21619;-82
2021/07/04 11:09:57;;;;;;;4.80;4.40;;;;;;;25.88;45.88;98448.78;2249299;79;21630;-81
2021/07/04 11:12:58;;;;;;;6.05;4.40;;;;;;;25.89;45.84;98446.97;2249871;79;20889;-82
2021/07/04 11:15:59;;;;;;;4.85;4.28;;;;;;;26.12;46.40;98444.36;2249395;79;20917;-80
2021/07/04 11:19:00;;;;;;;5.70;4.20;;;;;;;26.66;45.41;98434.94;2249515;79;20969;-83
2021/07/04 11:22:01;;;;;;;4.47;4.12;;;;;;;27.03;44.05;98437.64;2249913;79;20912;-81
2021/07/04 11:25:02;;;;;;;4.33;3.75;;;;;;;27.05;42.70;98444.25;2250086;79;20951;-82
2021/07/04 11:28:02;;;;;;;5.50;4.12;;;;;;;26.72;43.04;98445.75;2249904;79;20955;-81
2021/07/04 11:31:07;;;;;;;3.92;3.62;;;;;;;26.48;43.14;98438.23;2249925;79;20923;-81
2021/07/04 11:34:07;;;;;;;4.00;3.50;;;;;;;26.41;42.93;98428.84;2249761;79;20873;-81
2021/07/04 11:37:08;;;;;;;4.17;3.87;;;;;;;26.42;43.60;98433.23;2250125;79;20996;-81
2021/07/04 11:40:09;;;;;;;3.80;3.55;;;;;;;26.76;43.11;98426.73;2249599;79;20934;-81
2021/07/04 11:43:10;;;;;;;3.80;3.60;;;;;;;27.40;42.21;98429.99;2249649;79;20980;-81
2021/07/04 11:46:11;;;;;;;3.95;3.65;;;;;;;27.89;41.39;98423.27;2249688;79;20896;-82
2021/07/04 11:49:13;;;;;;;4.05;3.75;;;;;;;28.63;41.38;98424.66;2228159;79;20880;-81
2021/07/04 11:52:14;;;;;;;4.37;4.05;;;;;;;28.55;40.44;98427.83;2250197;79;20896;-82
2021/07/04 11:55:15;;;;;;;5.90;5.40;;;;;;;28.07;40.83;98423.89;2249664;79;20904;-82
2021/07/04 11:58:16;;;;;;;4.50;4.15;;;;;;;27.64;42.01;98421.77;2249453;79;21355;-82
2021/07/04 12:01:17;;;;;;;4.12;3.72;;;;;;;27.26;41.76;98426.84;2249927;79;21292;-81
2021/07/04 12:04:18;;;;;;;5.30;3.72;;;;;;;26.66;42.40;98421.55;2257529;77;21330;-80
2021/07/04 12:07:19;;;;;;;5.60;3.77;;;;;;;26.26;43.01;98427.03;2281775;78;21037;-81
2021/07/04 12:10:20;;;;;;;4.17;3.80;;;;;;;26.02;43.59;98419.48;2282195;78;20970;-81
2021/07/04 12:13:21;;;;;;;3.90;3.60;;;;;;;25.91;44.49;98426.35;2282099;77;21322;-83
2021/07/04 12:16:22;;;;;;;4.65;4.25;;;;;;;25.91;44.48;98424.55;2282085;78;20894;-81
2021/07/04 12:19:23;;;;;;;4.37;4.08;;;;;;;25.78;44.89;98422.17;2281720;77;20899;-80
2021/07/04 12:22:24;;;;;;;6.78;4.42;;;;;;;25.91;45.43;98413.84;2282222;78;20946;-82
2021/07/04 12:25:26;;;;;;;5.15;4.65;;;;;;;25.91;45.38;98408.50;2281728;77;20962;-81
2021/07/04 12:28:27;;;;;;;4.75;4.35;;;;;;;25.99;45.39;98408.92;2281565;77;21256;-81
2021/07/04 12:31:28;;;;;;;6.17;4.33;;;;;;;26.17;45.28;98412.85;2281867;77;20949;-80
2021/07/04 12:34:29;;;;;;;4.60;4.30;;;;;;;26.32;45.55;98407.94;2281869;78;20911;-82
2021/07/04 12:37:30;;;;;;;4.50;4.20;;;;;;;26.49;45.00;98399.80;2281884;77;20961;-82
2021/07/04 12:40:31;;;;;;;5.00;4.60;;;;;;;26.52;44.78;98392.93;2282363;78;20957;-81
2021/07/04 12:43:33;;;;;;;5.20;4.42;;;;;;;26.57;44.77;98393.52;2281881;77;20938;-83
2021/07/04 12:46:37;;;;;;;5.08;4.37;;;;;;;26.84;44.84;98390.12;2281956;77;20954;-81
2021/07/04 12:49:37;;;;;;;4.83;4.42;;;;;;;27.41;43.99;98378.98;2282114;77;21354;-81
2021/07/04 12:52:38;;;;;;;5.08;4.40;;;;;;;27.59;43.44;98376.94;2281950;78;20906;-81
2021/07/04 12:55:39;;;;;;;5.12;4.60;;;;;;;27.96;40.90;98382.16;2281838;78;20962;-81
2021/07/04 12:58:39;;;;;;;4.53;4.12;;;;;;;28.18;41.12;98377.56;2281787;78;20981;-80
2021/07/04 13:01:41;;;;;;;4.30;4.00;;;;;;;28.36;39.73;98376.35;2281350;77;20957;-81
2021/07/04 13:04:41;;;;;;;4.58;4.17;;;;;;;28.67;40.54;98370.25;2272129;77;20956;-81
2021/07/04 13:07:43;;;;;;;4.30;4.00;;;;;;;28.91;40.02;98365.89;2249440;79;20920;-82
2021/07/04 13:10:44;;;;;;;4.28;3.98;;;;;;;28.75;39.36;98361.19;2249798;79;20948;-81
2021/07/04 13:13:45;;;;;;;5.97;4.50;;;;;;;28.78;39.96;98360.97;2249575;79;20947;-81
2021/07/04 13:16:45;;;;;;;4.40;4.00;;;;;;;29.02;38.36;98359.27;2249369;79;21255;-81
2021/07/04 13:19:46;;;;;;;5.95;4.45;;;;;;;29.57;38.34;98354.50;2249402;79;21245;-82
2021/07/04 13:22:47;;;;;;;4.40;4.05;;;;;;;30.07;37.66;98352.97;2249798;79;21292;-80
2021/07/04 13:25:53;;;;;;;4.10;3.80;;;;;;;30.26;36.45;98350.23;2249897;79;20991;-80
2021/07/04 13:28:51;;;;;;;7.10;4.15;;;;;;;30.16;36.23;98352.77;2249161;79;21004;-82
2021/07/04 13:31:52;;;;;;;5.97;4.30;;;;;;;30.22;35.02;98359.03;2249728;79;21057;-81
2021/07/04 13:34:53;;;;;;;4.20;3.90;;;;;;;30.08;35.35;98353.83;2249560;79;20901;-82
2021/07/04 13:37:55;;;;;;;4.00;3.75;;;;;;;29.83;34.94;98352.09;2249644;79;20976;-81
2021/07/04 13:40:57;;;;;;;4.92;4.03;;;;;;;29.62;35.78;98344.27;2249564;79;21324;-80
2021/07/04 13:43:58;;;;;;;5.20;4.10;;;;;;;29.73;35.48;98339.81;2249937;79;21344;-82
2021/07/04 13:46:59;;;;;;;4.62;3.92;;;;;;;29.62;34.86;98339.74;2249895;79;20900;-82
2021/07/04 13:50:00;;;;;;;3.90;3.65;;;;;;;29.70;35.24;98336.00;2249431;79;20932;-81
2021/07/04 13:53:01;;;;;;;4.08;3.77;;;;;;;30.07;35.27;98337.31;2249475;79;21276;-80
2021/07/04 13:56:02;;;;;;;4.35;4.05;;;;;;;30.20;34.85;98324.64;2249356;79;20983;-80
2021/07/04 13:59:03;;;;;;;4.25;3.83;;;;;;;30.29;34.14;98333.84;2248618;79;20968;-81
2021/07/04 14:02:04;;;;;;;4.22;3.65;;;;;;;30.40;34.68;98319.97;2249152;79;20916;-80
2021/07/04 14:05:04;;;;;;;5.28;3.60;;;;;;;30.65;34.24;98319.43;2250212;77;21007;-80